createdAt,value
2022-07-31T00:00:41.079Z,6.70
2022-07-31T00:03:28.297Z,4.15
2022-07-31T00:06:15.497Z,4.25
2022-07-31T00:09:02.644Z,3.40
2022-07-31T00:11:49.834Z,3.00
2022-07-31T00:14:36.946Z,3.10
2022-07-31T00:17:24.055Z,3.83
2022-07-31T00:20:16.164Z,3.15
2022-07-31T00:23:03.287Z,2.90
2022-07-31T00:25:50.484Z,3.28
2022-07-31T00:28:38.831Z,2.53
2022-07-31T00:31:25.980Z,3.00
2022-07-31T00:34:15.362Z,2.85
2022-07-31T00:37:02.968Z,2.92
2022-07-31T00:39:50.341Z,2.50
2022-07-31T00:42:40.080Z,2.92
2022-07-31T00:45:27.990Z,2.47
2022-07-31T00:48:16.507Z,2.40
2022-07-31T00:51:07.555Z,3.42
2022-07-31T00:53:59.391Z,2.50
2022-07-31T00:56:46.496Z,2.90
2022-07-31T00:59:36.144Z,2.67
2022-07-31T01:02:23.937Z,2.78
2022-07-31T01:05:13.316Z,2.70
2022-07-31T01:08:00.438Z,2.70
2022-07-31T01:11:02.275Z,3.10
2022-07-31T01:13:56.014Z,2.92
2022-07-31T01:16:46.822Z,3.30
2022-07-31T01:19:43.338Z,2.45
2022-07-31T01:22:57.734Z,3.03
2022-07-31T01:25:53.960Z,3.28
2022-07-31T01:29:16.835Z,2.63
2022-07-31T01:32:09.307Z,3.38
2022-07-31T01:35:33.386Z,2.85
2022-07-31T01:38:45.777Z,3.00
2022-07-31T01:41:40.516Z,2.70
2022-07-31T01:44:29.257Z,2.95
2022-07-31T01:47:19.721Z,2.80
2022-07-31T01:50:08.957Z,2.92
2022-07-31T01:53:21.354Z,2.53
2022-07-31T01:56:11.787Z,3.00
2022-07-31T01:59:00.812Z,2.70
2022-07-31T02:01:49.663Z,2.72
2022-07-31T02:04:39.629Z,2.38
2022-07-31T02:07:28.148Z,2.40
2022-07-31T02:10:16.540Z,2.67
2022-07-31T02:13:05.457Z,2.60
2022-07-31T02:15:53.814Z,2.50
2022-07-31T02:18:42.253Z,2.97
2022-07-31T02:21:31.515Z,2.80
2022-07-31T02:24:18.685Z,2.65
2022-07-31T02:27:06.720Z,2.85
2022-07-31T02:30:16.046Z,2.40
2022-07-31T02:33:04.780Z,2.80
2022-07-31T02:35:57.467Z,2.38
2022-07-31T02:38:45.880Z,3.30
2022-07-31T02:41:32.970Z,3.70
2022-07-31T02:44:27.047Z,3.50
2022-07-31T02:47:17.149Z,3.90
2022-07-31T02:50:07.065Z,3.60
2022-07-31T02:52:54.216Z,3.80
2022-07-31T02:55:45.279Z,3.15
2022-07-31T02:58:32.496Z,3.20
2022-07-31T03:01:24.314Z,3.65
2022-07-31T03:04:12.268Z,3.37
2022-07-31T03:07:00.614Z,2.50
2022-07-31T03:09:50.073Z,2.85
2022-07-31T03:12:41.323Z,2.78
2022-07-31T03:15:30.637Z,2.78
2022-07-31T03:18:24.482Z,2.83
2022-07-31T03:21:14.267Z,3.05
2022-07-31T03:24:03.607Z,2.70
2022-07-31T03:26:52.810Z,2.70
2022-07-31T03:29:43.171Z,3.00
2022-07-31T03:32:31.198Z,3.50
2022-07-31T03:35:18.815Z,3.08
2022-07-31T03:38:40.492Z,3.47
2022-07-31T03:41:13.327Z,3.08
2022-07-31T03:44:00.791Z,2.95
2022-07-31T03:46:48.368Z,3.55
2022-07-31T03:49:36.015Z,3.30
2022-07-31T03:52:23.542Z,3.42
2022-07-31T03:55:10.999Z,3.45
2022-07-31T03:57:59.881Z,2.60
2022-07-31T04:01:20.675Z,2.67
2022-07-31T04:04:08.098Z,2.97
2022-07-31T04:06:55.232Z,3.78
2022-07-31T04:09:42.708Z,3.40
2022-07-31T04:12:32.339Z,2.72
2022-07-31T04:15:24.335Z,3.10
2022-07-31T04:18:11.458Z,2.80
2022-07-31T04:20:58.561Z,2.45
2022-07-31T04:23:49.604Z,2.85
2022-07-31T04:26:37.587Z,3.07
2022-07-31T04:29:28.584Z,2.83
2022-07-31T04:32:18.342Z,3.15
2022-07-31T04:35:06.311Z,3.10
2022-07-31T04:37:56.724Z,2.63
2022-07-31T04:40:44.074Z,2.35
2022-07-31T04:43:31.214Z,2.42
2022-07-31T04:46:18.382Z,2.65
2022-07-31T04:49:07.786Z,3.25
2022-07-31T04:51:54.934Z,2.63
2022-07-31T04:54:42.159Z,2.47
2022-07-31T04:57:29.250Z,2.20
2022-07-31T05:00:16.667Z,2.42
2022-07-31T05:03:03.878Z,2.22
2022-07-31T05:05:51.113Z,2.70
2022-07-31T05:08:40.915Z,2.42
2022-07-31T05:11:28.109Z,2.47
2022-07-31T05:14:19.633Z,2.53
2022-07-31T05:17:06.984Z,2.20
2022-07-31T05:19:54.099Z,2.30
2022-07-31T05:22:41.302Z,2.58
2022-07-31T05:25:28.511Z,2.42
2022-07-31T05:28:15.921Z,2.55
2022-07-31T05:31:04.914Z,2.58
2022-07-31T05:33:52.246Z,2.33
2022-07-31T05:36:39.570Z,2.45
2022-07-31T05:39:29.173Z,2.50
2022-07-31T05:42:16.329Z,2.15
2022-07-31T05:45:06.308Z,2.00
2022-07-31T05:47:55.651Z,2.25
2022-07-31T05:50:43.843Z,2.28
2022-07-31T05:53:30.976Z,2.17
2022-07-31T05:56:18.169Z,2.50
2022-07-31T05:59:05.333Z,2.17
2022-07-31T06:01:56.892Z,2.30
2022-07-31T06:04:44.028Z,2.35
2022-07-31T06:07:33.714Z,2.30
2022-07-31T06:10:23.962Z,2.40
2022-07-31T06:13:14.702Z,2.20
2022-07-31T06:16:01.791Z,2.30
2022-07-31T06:18:48.968Z,2.33
2022-07-31T06:21:36.085Z,2.08
2022-07-31T06:24:23.631Z,2.22
2022-07-31T06:27:17.046Z,1.95
2022-07-31T06:30:19.038Z,1.85
2022-07-31T06:33:08.337Z,2.00
2022-07-31T06:35:55.786Z,2.40
2022-07-31T06:38:42.923Z,2.17
2022-07-31T06:41:45.007Z,2.25
2022-07-31T06:44:33.942Z,2.15
2022-07-31T06:47:23.608Z,2.10
2022-07-31T06:50:10.961Z,2.20
2022-07-31T06:52:58.455Z,2.42
2022-07-31T06:55:45.635Z,2.08
2022-07-31T06:58:35.073Z,2.10
2022-07-31T07:01:25.335Z,1.80
2022-07-31T07:04:12.482Z,2.10
2022-07-31T07:06:59.645Z,1.80
2022-07-31T07:09:49.772Z,2.08
2022-07-31T07:12:42.628Z,2.13
2022-07-31T07:15:38.778Z,2.00
2022-07-31T07:18:26.215Z,2.22
2022-07-31T07:21:14.062Z,2.13
2022-07-31T07:24:04.125Z,1.83
2022-07-31T07:26:53.786Z,2.10
2022-07-31T07:29:41.027Z,2.03
2022-07-31T07:32:30.007Z,2.00
2022-07-31T07:35:17.322Z,1.90
2022-07-31T07:38:04.496Z,1.85
2022-07-31T07:40:52.348Z,2.00
2022-07-31T07:43:39.788Z,1.90
2022-07-31T07:46:34.133Z,1.95
2022-07-31T07:49:21.890Z,1.48
2022-07-31T07:52:09.462Z,1.60
2022-07-31T07:54:56.549Z,1.38
2022-07-31T07:57:48.132Z,1.35
2022-07-31T08:00:36.104Z,1.13
2022-07-31T08:03:49.468Z,1.30
2022-07-31T08:06:34.035Z,1.52
2022-07-31T08:09:23.361Z,1.35
2022-07-31T08:12:10.787Z,1.17
2022-07-31T08:14:58.123Z,1.10
2022-07-31T08:17:45.623Z,1.42
2022-07-31T08:20:36.602Z,1.40
2022-07-31T08:23:26.542Z,1.58
2022-07-31T08:26:14.211Z,1.20
2022-07-31T08:29:07.779Z,1.00
2022-07-31T08:31:55.026Z,1.10
2022-07-31T08:34:42.336Z,1.30
2022-07-31T08:38:01.430Z,0.90
2022-07-31T08:40:42.841Z,0.95
2022-07-31T08:44:00.480Z,1.10
2022-07-31T08:46:40.131Z,1.10
2022-07-31T08:49:31.971Z,1.10
2022-07-31T08:52:26.725Z,1.10
2022-07-31T08:55:55.592Z,1.20
2022-07-31T08:58:21.806Z,1.30
2022-07-31T09:01:12.714Z,1.13
2022-07-31T09:04:00.686Z,0.98
2022-07-31T09:06:50.363Z,1.00
2022-07-31T09:09:51.829Z,0.85
2022-07-31T09:15:30.304Z,1.20
2022-07-31T09:18:25.215Z,0.98
2022-07-31T09:21:14.663Z,1.17
2022-07-31T09:24:32.246Z,1.10
2022-07-31T09:27:28.699Z,1.10
2022-07-31T09:30:16.027Z,1.30
2022-07-31T09:33:17.558Z,1.10
2022-07-31T09:36:05.451Z,1.07
2022-07-31T09:38:56.556Z,1.23
2022-07-31T09:41:58.207Z,1.20
2022-07-31T09:44:51.453Z,1.23
2022-07-31T09:47:38.686Z,1.10
2022-07-31T09:50:25.830Z,1.00
2022-07-31T09:53:14.635Z,1.10
2022-07-31T09:56:01.771Z,1.10
2022-07-31T09:58:49.076Z,1.10
2022-07-31T10:01:37.864Z,1.00
2022-07-31T10:04:27.776Z,1.00
2022-07-31T10:07:24.328Z,1.00
2022-07-31T10:10:23.087Z,1.10
2022-07-31T10:13:17.829Z,1.33
2022-07-31T10:16:14.185Z,1.33
2022-07-31T10:19:19.366Z,1.27
2022-07-31T10:22:09.347Z,0.80
2022-07-31T10:25:01.418Z,1.10
2022-07-31T10:27:49.831Z,1.25
2022-07-31T10:30:43.216Z,0.98
2022-07-31T10:33:48.772Z,1.10
2022-07-31T10:36:38.205Z,1.20
2022-07-31T10:39:41.546Z,1.00
2022-07-31T10:42:35.695Z,1.02
2022-07-31T10:45:27.016Z,0.70
2022-07-31T10:48:14.170Z,1.10
2022-07-31T10:51:09.303Z,0.90
2022-07-31T10:54:01.809Z,1.10
2022-07-31T10:56:49.262Z,1.02
2022-07-31T10:59:36.774Z,1.20
2022-07-31T11:02:35.121Z,1.30
2022-07-31T11:05:28.027Z,1.38
2022-07-31T11:08:15.341Z,1.30
2022-07-31T11:11:03.484Z,1.30
2022-07-31T11:13:53.002Z,1.42
2022-07-31T11:16:53.666Z,1.30
2022-07-31T11:19:42.810Z,1.10
2022-07-31T11:22:31.328Z,1.42
2022-07-31T11:25:19.703Z,1.00
2022-07-31T11:28:18.716Z,1.08
2022-07-31T11:31:09.770Z,1.20
2022-07-31T11:34:03.402Z,0.90
2022-07-31T11:36:57.765Z,0.90
2022-07-31T11:39:51.662Z,1.30
2022-07-31T11:42:44.622Z,1.17
2022-07-31T11:45:44.769Z,1.10
2022-07-31T11:48:38.974Z,1.10
2022-07-31T11:51:31.048Z,1.23
2022-07-31T11:54:27.528Z,1.23
2022-07-31T11:57:14.673Z,0.98
2022-07-31T12:00:29.223Z,1.20
2022-07-31T12:03:35.007Z,1.27
2022-07-31T12:06:26.678Z,1.20
2022-07-31T12:10:02.471Z,1.05
2022-07-31T12:12:24.152Z,1.00
2022-07-31T12:15:19.644Z,1.08
2022-07-31T12:18:07.272Z,1.00
2022-07-31T12:20:59.395Z,1.13
2022-07-31T12:23:48.328Z,1.20
2022-07-31T12:26:37.696Z,1.17
2022-07-31T12:29:45.709Z,0.90
2022-07-31T12:32:33.068Z,1.00
2022-07-31T12:35:22.864Z,1.20
2022-07-31T12:38:30.178Z,1.10
2022-07-31T12:41:21.589Z,1.20
2022-07-31T12:44:13.212Z,0.93
2022-07-31T12:47:01.737Z,1.20
2022-07-31T12:49:49.692Z,1.10
2022-07-31T12:52:38.125Z,1.05
2022-07-31T12:55:27.446Z,1.00
2022-07-31T12:58:17.906Z,0.98
2022-07-31T13:01:05.085Z,1.00
2022-07-31T13:03:56.183Z,1.00
2022-07-31T13:06:48.847Z,1.00
2022-07-31T13:09:37.534Z,0.90
2022-07-31T13:12:27.284Z,1.05
2022-07-31T13:15:30.117Z,0.90
2022-07-31T13:18:17.723Z,1.10
2022-07-31T13:21:06.113Z,0.90
2022-07-31T13:23:56.388Z,0.90
2022-07-31T13:26:45.634Z,0.93
2022-07-31T13:29:36.034Z,0.93
2022-07-31T13:32:23.550Z,0.80
2022-07-31T13:35:26.324Z,0.90
2022-07-31T13:38:18.733Z,1.00
2022-07-31T13:41:21.037Z,1.10
2022-07-31T13:44:11.451Z,1.00
2022-07-31T13:46:58.909Z,1.08
2022-07-31T13:49:49.213Z,1.00
2022-07-31T13:52:38.568Z,1.10
2022-07-31T13:55:29.102Z,1.00
2022-07-31T13:58:16.430Z,1.00
2022-07-31T14:01:04.702Z,0.73
2022-07-31T14:03:52.040Z,0.63
2022-07-31T14:06:51.811Z,0.80
2022-07-31T14:09:51.286Z,0.90
2022-07-31T14:12:47.062Z,0.75
2022-07-31T14:15:34.432Z,0.85
2022-07-31T14:18:24.543Z,0.98
2022-07-31T14:21:13.651Z,0.98
2022-07-31T14:24:04.454Z,1.38
2022-07-31T14:26:51.828Z,0.60
2022-07-31T14:29:41.307Z,1.00
2022-07-31T14:32:31.283Z,0.80
2022-07-31T14:35:18.456Z,0.90
2022-07-31T14:38:05.622Z,0.75
2022-07-31T14:40:52.830Z,1.00
2022-07-31T14:43:40.058Z,1.10
2022-07-31T14:46:27.150Z,0.93
2022-07-31T14:49:16.921Z,0.98
2022-07-31T14:52:07.915Z,1.60
2022-07-31T14:54:58.516Z,1.00
2022-07-31T14:57:47.747Z,0.95
2022-07-31T15:00:35.202Z,0.85
2022-07-31T15:03:22.515Z,1.10
2022-07-31T15:06:39.592Z,0.93
2022-07-31T15:09:24.585Z,1.00
2022-07-31T15:12:17.014Z,0.93
2022-07-31T15:15:05.154Z,0.77
2022-07-31T15:17:52.375Z,1.00
2022-07-31T15:20:41.699Z,0.80
2022-07-31T15:23:34.487Z,0.98
2022-07-31T15:26:23.333Z,1.10
2022-07-31T15:29:10.568Z,1.23
2022-07-31T15:31:57.853Z,0.98
2022-07-31T15:34:47.239Z,1.20
2022-07-31T15:37:40.792Z,1.15
2022-07-31T15:40:28.091Z,8.10
2022-07-31T15:43:15.689Z,2.78
2022-07-31T15:46:07.696Z,1.50
2022-07-31T15:48:54.892Z,1.00
2022-07-31T15:51:42.025Z,1.00
2022-07-31T15:54:29.167Z,1.20
2022-07-31T15:57:25.445Z,1.42
2022-07-31T16:00:14.166Z,1.00
2022-07-31T16:03:01.829Z,1.27
2022-07-31T16:05:56.280Z,1.30
2022-07-31T16:08:43.599Z,1.13
2022-07-31T16:12:03.550Z,1.40
2022-07-31T16:14:37.922Z,1.00
2022-07-31T16:17:26.649Z,2.00
2022-07-31T16:20:20.650Z,1.02
2022-07-31T16:23:13.150Z,1.20
2022-07-31T16:26:02.730Z,1.45
2022-07-31T16:28:54.267Z,1.00
2022-07-31T16:31:41.645Z,1.40
2022-07-31T16:34:32.020Z,1.40
2022-07-31T16:37:19.913Z,1.60
2022-07-31T16:40:38.401Z,1.50
2022-07-31T16:43:50.218Z,1.50
2022-07-31T16:46:34.787Z,1.77
2022-07-31T16:49:35.712Z,2.67
2022-07-31T16:52:23.766Z,1.45
2022-07-31T16:55:13.342Z,1.25
2022-07-31T16:58:02.784Z,1.30
2022-07-31T17:01:02.899Z,1.38
2022-07-31T17:04:01.001Z,1.63
2022-07-31T17:06:56.227Z,1.25
2022-07-31T17:09:43.515Z,1.60
2022-07-31T17:12:30.675Z,1.42
2022-07-31T17:15:20.256Z,1.55
2022-07-31T17:18:09.999Z,1.35
2022-07-31T17:20:57.191Z,1.50
2022-07-31T17:23:51.050Z,1.70
2022-07-31T17:26:38.876Z,1.77
2022-07-31T17:29:25.993Z,1.27
2022-07-31T17:32:13.568Z,1.30
2022-07-31T17:35:00.858Z,1.67
2022-07-31T17:37:48.018Z,2.65
2022-07-31T17:40:44.034Z,2.65
2022-07-31T17:43:49.801Z,1.77
2022-07-31T17:46:43.974Z,2.00
2022-07-31T17:49:35.465Z,1.35
2022-07-31T17:52:25.265Z,1.38
2022-07-31T17:55:12.597Z,1.40
2022-07-31T17:58:01.925Z,1.38
2022-07-31T18:00:49.980Z,1.77
2022-07-31T18:03:37.168Z,1.35
2022-07-31T18:06:24.294Z,2.03
2022-07-31T18:09:11.683Z,1.92
2022-07-31T18:11:59.166Z,1.65
2022-07-31T18:14:46.462Z,1.75
2022-07-31T18:17:37.821Z,1.48
2022-07-31T18:20:27.500Z,1.58
2022-07-31T18:23:14.663Z,1.80
2022-07-31T18:26:03.795Z,1.70
2022-07-31T18:28:51.055Z,1.55
2022-07-31T18:31:42.869Z,1.60
2022-07-31T18:34:29.984Z,1.90
2022-07-31T18:37:17.338Z,1.73
2022-07-31T18:40:06.180Z,1.67
2022-07-31T18:42:53.615Z,1.70
2022-07-31T18:45:56.227Z,1.52
2022-07-31T18:51:35.610Z,2.00
2022-07-31T18:54:22.825Z,1.90
2022-07-31T18:57:10.258Z,1.60
2022-07-31T18:59:59.956Z,1.85
2022-07-31T19:02:47.339Z,1.83
2022-07-31T19:05:43.823Z,1.58
2022-07-31T19:08:37.343Z,1.50
2022-07-31T19:12:08.244Z,1.90
2022-07-31T19:15:08.490Z,1.88
2022-07-31T19:21:41.401Z,2.67
2022-07-31T19:24:43.425Z,2.30
2022-07-31T19:32:03.253Z,1.92
2022-07-31T19:34:52.770Z,1.80
2022-07-31T19:38:24.139Z,2.10
2022-07-31T19:41:13.803Z,2.30
2022-07-31T19:44:01.124Z,2.10
2022-07-31T19:46:48.252Z,2.00
2022-07-31T19:49:38.412Z,1.70
2022-07-31T19:52:26.365Z,2.08
2022-07-31T19:55:15.195Z,1.85
2022-07-31T19:58:02.627Z,12.60
2022-07-31T20:00:50.119Z,1.70
2022-07-31T20:03:40.074Z,1.40
2022-07-31T20:06:28.867Z,1.55
2022-07-31T20:09:18.544Z,1.60
2022-07-31T20:12:06.870Z,1.20
2022-07-31T20:14:58.198Z,1.35
2022-07-31T20:17:48.626Z,1.60
2022-07-31T20:20:35.793Z,1.40
2022-07-31T20:23:23.228Z,1.20
2022-07-31T20:26:12.341Z,1.20
2022-07-31T20:29:03.482Z,1.25
2022-07-31T20:31:53.545Z,1.35
2022-07-31T20:34:40.695Z,1.30
2022-07-31T20:37:29.961Z,1.23
2022-07-31T20:40:19.739Z,1.20
2022-07-31T20:43:06.962Z,1.00
2022-07-31T20:45:58.999Z,1.13
2022-07-31T20:48:46.506Z,1.48
2022-07-31T20:51:34.973Z,1.30
2022-07-31T20:54:34.474Z,1.23
2022-07-31T20:57:22.257Z,1.30
2022-07-31T21:00:13.092Z,1.60
2022-07-31T21:03:02.732Z,1.13
2022-07-31T21:05:50.369Z,1.50
2022-07-31T21:08:41.028Z,1.38
2022-07-31T21:11:31.353Z,1.00
2022-07-31T21:14:19.035Z,1.40
2022-07-31T21:17:06.277Z,1.35
2022-07-31T21:19:54.421Z,1.30
2022-07-31T21:22:41.918Z,1.42
2022-07-31T21:25:32.611Z,1.30
2022-07-31T21:28:23.111Z,1.40
2022-07-31T21:31:10.546Z,1.30
2022-07-31T21:34:00.588Z,1.60
2022-07-31T21:36:48.153Z,1.30
2022-07-31T21:39:35.718Z,1.30
2022-07-31T21:42:23.174Z,1.25
2022-07-31T21:45:13.444Z,1.60
2022-07-31T21:48:03.185Z,1.40
2022-07-31T21:50:50.790Z,1.17
2022-07-31T21:53:37.914Z,1.20
2022-07-31T21:56:25.125Z,1.35
2022-07-31T21:59:13.072Z,1.42
2022-07-31T22:02:02.156Z,1.58
2022-07-31T22:05:07.995Z,1.55
2022-07-31T22:07:55.217Z,1.63
2022-07-31T22:10:42.525Z,1.88
2022-07-31T22:13:29.667Z,1.55
2022-07-31T22:16:21.228Z,1.80
2022-07-31T22:19:11.331Z,1.60
2022-07-31T22:22:02.414Z,1.50
2022-07-31T22:24:52.710Z,1.65
2022-07-31T22:27:52.745Z,3.17
2022-07-31T22:30:40.176Z,2.30
2022-07-31T22:33:28.672Z,2.47
2022-07-31T22:36:19.208Z,1.80
2022-07-31T22:39:07.033Z,1.48
2022-07-31T22:41:54.449Z,1.60
2022-07-31T22:44:47.742Z,1.58
2022-07-31T22:47:37.488Z,1.50
2022-07-31T22:50:25.428Z,1.55
2022-07-31T22:53:13.307Z,1.60
2022-07-31T22:56:02.767Z,1.50
2022-07-31T22:58:50.020Z,1.60
2022-07-31T23:01:37.136Z,1.60
2022-07-31T23:04:26.651Z,1.88
2022-07-31T23:07:13.743Z,1.73
2022-07-31T23:10:00.950Z,1.75
2022-07-31T23:12:48.103Z,1.40
2022-07-31T23:15:35.245Z,1.58
2022-07-31T23:18:22.414Z,1.83
2022-07-31T23:21:12.675Z,2.03
2022-07-31T23:23:59.886Z,2.00
2022-07-31T23:27:08.913Z,1.63
2022-07-31T23:29:56.054Z,1.95
2022-07-31T23:32:43.244Z,2.10
2022-07-31T23:35:31.591Z,2.40
2022-07-31T23:38:19.372Z,2.00
2022-07-31T23:41:06.598Z,1.98
2022-07-31T23:43:55.875Z,2.20
2022-07-31T23:46:43.429Z,1.95
2022-07-31T23:49:32.162Z,2.13
2022-07-31T23:52:21.640Z,2.33
2022-07-31T23:55:11.587Z,2.28
2022-07-31T23:58:02.526Z,1.80
